Portada
METAR-TAF:

METAR-TAF

Aeroports :

Hannover, Alemanya

latitud: 52-28N, longitud: 009-41E, altitud: 56 m

Observació

L'informe es va fer fa 13 minuts, a les 13:20 UTC
Vent 6 kt del Sud-Est, variant entre Est/Nord-Est i Sud/Sud-Oest
Temperatura 6°C
Humitat 45%
Pressió 1030 hPa
Visibilitat 10 km o més
Núvols disperses a una alçada de 4500 ft

METAR: EDDV 311320Z 13006KT 070V210 9999 SCT045 06/M05 Q1030 NOSIG

Hora: 15:33 (13:33 UTC)

Pronòstic

L'informe es va fer fa 2 hores i 33 minuts, a les 11:00 UTC
Pronòstic vàlid del 31 a les 12 UTC al 01 a les 12 UTC
Vent 3 kt amb direcció variable
Visibilitat 10 km o més
Núvols disperses a una alçada de 4000 ft
Evolucionant progressivament
l' 01 a les 05 UTC al 01 a les 07 UTC
Vent 8 kt del Oest

TAF: EDDV 311100Z 3112/0112 VRB03KT 9999 SCT040 BECMG 0105/0107 26008KT

Observacions i pronòstics meteorològics de més de 4000 aeroports (METAR i TAF).

Les estacions disponibles són els punts grocs i vermells al mapa.

Posi el ratolí al punt desitjat per veure el nom de l'estació.

Feu clic per veure les observacions i els pronòstics meteorològics.

Per canviar el mapa: feu clic els botons verds amb una creu de color negre per apropar; al botó verd amb un guió per allunyar la imatge; o en les fletxes verdes per a mapes adjacents.


METAR-TAF: